Time,TemperatureF,DewpointF,PressureIn,WindDirection,WindDirectionDegrees,WindSpeedMPH,WindSpeedGustMPH,Humidity,HourlyPrecipIn,Conditions,Clouds,dailyrainin,SoftwareType,DateUTC
2013-01-13 00:04:00,51.9,49.0,29.96,SSW,203,1.0,5.0,89,0.00,,,0.00,weatherlink.com 1.10,2013-01-13 05:04:00,
2013-01-13 00:19:00,51.7,49.0,29.96,SW,227,2.0,3.0,89,0.00,,,0.00,weatherlink.com 1.10,2013-01-13 05:19:00,
2013-01-13 00:34:00,51.6,49.0,29.95,SSW,196,1.0,4.0,90,0.00,,,0.00,weatherlink.com 1.10,2013-01-13 05:34:00,
2013-01-13 00:49:00,51.3,49.0,29.95,SSW,209,0.0,4.0,90,0.00,,,0.00,weatherlink.com 1.10,2013-01-13 05:49:00,
2013-01-13 01:04:00,50.9,48.0,29.95,SW,220,0.0,0.0,90,0.00,,,0.00,weatherlink.com 1.10,2013-01-13 06:04:00,
2013-01-13 01:19:00,50.5,48.0,29.95,SSE,156,0.0,1.0,91,0.00,,,0.00,weatherlink.com 1.10,2013-01-13 06:19:00,
2013-01-13 01:34:00,50.0,48.0,29.95,WSW,252,2.0,2.0,91,0.00,,,0.00,weatherlink.com 1.10,2013-01-13 06:34:00,
2013-01-13 01:49:00,49.4,47.0,29.94,SSE,161,0.0,2.0,91,0.00,,,0.00,weatherlink.com 1.10,2013-01-13 06:49:00,
2013-01-13 02:04:00,48.8,47.0,29.95,SSW,193,0.0,1.0,94,0.00,,,0.00,weatherlink.com 1.10,2013-01-13 07:04:00,
2013-01-13 02:19:00,48.1,46.0,29.94,SSW,193,0.0,0.0,93,0.00,,,0.00,weatherlink.com 1.10,2013-01-13 07:19:00,
2013-01-13 02:34:00,47.7,46.0,29.94,SSW,193,0.0,0.0,94,0.00,,,0.00,weatherlink.com 1.10,2013-01-13 07:34:00,
2013-01-13 02:49:00,48.1,47.0,29.94,SSW,193,0.0,0.0,95,0.00,,,0.00,weatherlink.com 1.10,2013-01-13 07:49:00,
2013-01-13 03:04:00,48.7,47.0,29.92,East,84,3.0,5.0,94,0.00,,,0.00,weatherlink.com 1.10,2013-01-13 08:04:00,
2013-01-13 03:19:00,49.9,48.0,29.92,SSE,155,0.0,2.0,94,0.00,,,0.00,weatherlink.com 1.10,2013-01-13 08:19:00,
2013-01-13 03:34:00,50.5,48.0,29.91,SSW,201,0.0,2.0,91,0.00,,,0.00,weatherlink.com 1.10,2013-01-13 08:34:00,
2013-01-13 03:49:00,50.4,48.0,29.89,SE,136,0.0,3.0,92,0.00,,,0.00,weatherlink.com 1.10,2013-01-13 08:49:00,
2013-01-13 04:05:00,51.4,49.0,29.86,ESE,109,9.0,11.0,90,0.00,,,0.00,weatherlink.com 1.10,2013-01-13 09:05:00,
2013-01-13 04:20:00,52.0,49.0,29.83,ESE,116,5.0,11.0,89,0.00,,,0.00,weatherlink.com 1.10,2013-01-13 09:20:00,
2013-01-13 04:35:00,52.7,50.0,29.82,SSE,148,6.0,9.0,89,0.00,,,0.00,weatherlink.com 1.10,2013-01-13 09:35:00,
2013-01-13 04:50:00,53.8,49.0,29.82,SE,124,7.0,12.0,85,0.00,,,0.00,weatherlink.com 1.10,2013-01-13 09:50:00,
2013-01-13 05:05:00,52.6,49.0,29.79,ESE,112,2.0,10.0,87,0.00,,,0.00,weatherlink.com 1.10,2013-01-13 10:05:00,
2013-01-13 05:20:00,53.1,49.0,29.79,South,175,1.0,9.0,86,0.00,,,0.00,weatherlink.com 1.10,2013-01-13 10:20:00,
2013-01-13 05:35:00,53.0,49.0,29.81,NW,304,4.0,5.0,86,0.00,,,0.00,weatherlink.com 1.10,2013-01-13 10:35:00,
2013-01-13 05:50:00,52.2,49.0,29.80,NW,325,1.0,5.0,88,0.00,,,0.00,weatherlink.com 1.10,2013-01-13 10:50:00,
2013-01-13 06:05:00,52.8,49.0,29.80,SW,214,1.0,5.0,88,0.00,,,0.00,weatherlink.com 1.10,2013-01-13 11:05:00,
2013-01-13 06:20:00,52.2,49.0,29.79,SW,217,0.0,4.0,87,0.00,,,0.00,weatherlink.com 1.10,2013-01-13 11:20:00,
2013-01-13 06:35:00,52.2,48.0,29.80,NW,312,2.0,6.0,86,0.00,,,0.00,weatherlink.com 1.10,2013-01-13 11:35:00,
2013-01-13 06:50:00,52.0,49.0,29.80,WSW,254,0.0,2.0,88,0.00,,,0.00,weatherlink.com 1.10,2013-01-13 11:50:00,
2013-01-13 07:05:00,53.9,50.0,29.80,SW,221,1.0,4.0,86,0.00,,,0.00,weatherlink.com 1.10,2013-01-13 12:05:00,
2013-01-13 07:20:00,55.1,51.0,29.80,SSW,192,4.0,7.0,85,0.00,,,0.00,weatherlink.com 1.10,2013-01-13 12:20:00,
2013-01-13 07:35:00,56.9,52.0,29.81,SSW,198,4.0,7.0,82,0.00,,,0.00,weatherlink.com 1.10,2013-01-13 12:35:00,
2013-01-13 07:50:00,57.0,52.0,29.81,WSW,238,5.0,9.0,82,0.00,,,0.00,weatherlink.com 1.10,2013-01-13 12:50:00,
2013-01-13 08:05:00,56.8,52.0,29.82,SSW,207,4.0,7.0,83,0.00,,,0.00,weatherlink.com 1.10,2013-01-13 13:05:00,
2013-01-13 08:20:00,56.9,52.0,29.81,SW,232,2.0,7.0,83,0.00,,,0.00,weatherlink.com 1.10,2013-01-13 13:20:00,
2013-01-13 08:35:00,56.9,52.0,29.82,ESE,111,2.0,7.0,83,0.00,,,0.00,weatherlink.com 1.10,2013-01-13 13:35:00,
2013-01-13 08:50:00,57.2,52.0,29.80,SSW,209,5.0,17.0,82,0.00,,,0.00,weatherlink.com 1.10,2013-01-13 13:50:00,
2013-01-13 09:05:00,57.5,52.0,29.80,South,183,5.0,19.0,82,0.00,,,0.00,weatherlink.com 1.10,2013-01-13 14:05:00,
2013-01-13 09:20:00,57.7,53.0,29.80,SW,216,8.0,16.0,83,0.00,,,0.00,weatherlink.com 1.10,2013-01-13 14:20:00,
2013-01-13 09:35:00,58.0,53.0,29.80,SW,228,5.0,11.0,83,0.00,,,0.00,weatherlink.com 1.10,2013-01-13 14:35:00,
2013-01-13 09:50:00,58.5,53.0,29.79,WSW,242,3.0,7.0,83,0.00,,,0.00,weatherlink.com 1.10,2013-01-13 14:50:00,
2013-01-13 10:05:00,59.4,54.0,29.79,South,173,9.0,10.0,82,0.00,,,0.00,weatherlink.com 1.10,2013-01-13 15:05:00,
2013-01-13 10:20:00,60.5,54.0,29.79,South,179,5.0,16.0,80,0.00,,,0.00,weatherlink.com 1.10,2013-01-13 15:20:00,
2013-01-13 10:35:00,61.4,55.0,29.78,South,184,12.0,14.0,79,0.00,,,0.00,weatherlink.com 1.10,2013-01-13 15:35:00,
2013-01-13 10:50:00,62.3,55.0,29.78,SW,219,11.0,17.0,77,0.00,,,0.00,weatherlink.com 1.10,2013-01-13 15:50:00,
2013-01-13 11:05:00,62.9,55.0,29.77,WSW,242,7.0,14.0,76,0.00,,,0.00,weatherlink.com 1.10,2013-01-13 16:05:00,
2013-01-13 11:20:00,64.3,56.0,29.76,South,191,15.0,18.0,74,0.00,,,0.00,weatherlink.com 1.10,2013-01-13 16:20:00,
2013-01-13 11:35:00,64.1,56.0,29.75,ESE,109,10.0,18.0,74,0.00,,,0.00,weatherlink.com 1.10,2013-01-13 16:35:00,
2013-01-13 11:51:00,65.7,57.0,29.75,SW,232,3.0,17.0,73,0.00,,,0.00,weatherlink.com 1.10,2013-01-13 16:51:00,
2013-01-13 12:06:00,66.5,57.0,29.76,SW,235,6.0,16.0,72,0.00,,,0.00,weatherlink.com 1.10,2013-01-13 17:06:00,
2013-01-13 12:21:00,65.8,57.0,29.77,WSW,248,6.0,17.0,72,0.00,,,0.00,weatherlink.com 1.10,2013-01-13 17:21:00,
2013-01-13 12:36:00,65.4,56.0,29.76,WSW,244,4.0,13.0,72,0.00,,,0.00,weatherlink.com 1.10,2013-01-13 17:36:00,
2013-01-13 12:51:00,65.3,56.0,29.76,SSW,213,7.0,10.0,73,0.00,,,0.00,weatherlink.com 1.10,2013-01-13 17:51:00,
2013-01-13 13:06:00,65.2,57.0,29.77,SW,227,7.0,7.0,74,0.00,,,0.00,weatherlink.com 1.10,2013-01-13 18:06:00,
2013-01-13 13:21:00,65.1,57.0,29.76,WSW,250,3.0,7.0,74,0.00,,,0.00,weatherlink.com 1.10,2013-01-13 18:21:00,
2013-01-13 13:36:00,66.0,57.0,29.75,West,265,5.0,16.0,72,0.00,,,0.00,weatherlink.com 1.10,2013-01-13 18:36:00,
2013-01-13 13:51:00,66.8,57.0,29.76,West,281,6.0,13.0,71,0.00,,,0.00,weatherlink.com 1.10,2013-01-13 18:51:00,
2013-01-13 14:06:00,67.1,57.0,29.77,SW,223,5.0,12.0,71,0.00,,,0.00,weatherlink.com 1.10,2013-01-13 19:06:00,
2013-01-13 14:21:00,66.6,57.0,29.77,WSW,245,3.0,12.0,71,0.00,,,0.00,weatherlink.com 1.10,2013-01-13 19:21:00,
2013-01-13 14:36:00,65.9,57.0,29.79,West,274,8.0,12.0,72,0.00,,,0.00,weatherlink.com 1.10,2013-01-13 19:36:00,
2013-01-13 14:51:00,63.8,56.0,29.80,WNW,284,1.0,12.0,77,0.00,,,0.00,weatherlink.com 1.10,2013-01-13 19:51:00,
2013-01-13 15:06:00,63.4,56.0,29.80,West,265,3.0,9.0,78,0.00,,,0.00,weatherlink.com 1.10,2013-01-13 20:06:00,
2013-01-13 15:21:00,63.1,56.0,29.81,West,275,3.0,10.0,78,0.00,,,0.00,weatherlink.com 1.10,2013-01-13 20:21:00,
2013-01-13 15:36:00,62.9,56.0,29.82,SW,230,6.0,14.0,79,0.00,,,0.00,weatherlink.com 1.10,2013-01-13 20:36:00,
2013-01-13 15:51:00,61.9,56.0,29.83,West,277,5.0,14.0,80,0.00,,,0.00,weatherlink.com 1.10,2013-01-13 20:51:00,
2013-01-13 16:06:00,61.0,55.0,29.84,NW,305,4.0,12.0,81,0.00,,,0.00,weatherlink.com 1.10,2013-01-13 21:06:00,
2013-01-13 16:21:00,60.1,55.0,29.85,WSW,254,1.0,6.0,82,0.00,,,0.00,weatherlink.com 1.10,2013-01-13 21:21:00,
2013-01-13 16:36:00,59.8,55.0,29.85,WNW,290,2.0,4.0,83,0.00,,,0.00,weatherlink.com 1.10,2013-01-13 21:36:00,
2013-01-13 16:51:00,59.3,55.0,29.86,NW,318,3.0,5.0,84,0.00,,,0.00,weatherlink.com 1.10,2013-01-13 21:51:00,
2013-01-13 17:06:00,59.3,54.0,29.86,West,276,2.0,7.0,83,0.00,,,0.00,weatherlink.com 1.10,2013-01-13 22:06:00,
2013-01-13 17:21:00,58.9,54.0,29.85,WNW,300,0.0,3.0,84,0.00,,,0.00,weatherlink.com 1.10,2013-01-13 22:21:00,
2013-01-13 17:36:00,58.4,54.0,29.86,WSW,255,3.0,4.0,85,0.00,,,0.00,weatherlink.com 1.10,2013-01-13 22:36:00,
2013-01-13 17:51:00,58.7,54.0,29.86,WSW,252,4.0,5.0,84,0.00,,,0.00,weatherlink.com 1.10,2013-01-13 22:51:00,
2013-01-13 18:06:00,58.6,54.0,29.85,West,263,3.0,7.0,84,0.00,,,0.00,weatherlink.com 1.10,2013-01-13 23:06:00,
2013-01-13 18:21:00,58.1,54.0,29.84,SSW,206,1.0,5.0,85,0.00,,,0.00,weatherlink.com 1.10,2013-01-13 23:21:00,
2013-01-13 18:36:00,57.7,54.0,29.84,SSW,198,0.0,1.0,86,0.00,,,0.00,weatherlink.com 1.10,2013-01-13 23:36:00,
2013-01-13 18:51:00,57.3,53.0,29.85,WSW,243,3.0,7.0,86,0.00,,,0.00,weatherlink.com 1.10,2013-01-13 23:51:00,
2013-01-13 19:06:00,56.8,53.0,29.86,WSW,245,0.0,4.0,87,0.00,,,0.00,weatherlink.com 1.10,2013-01-14 00:06:00,
2013-01-13 19:21:00,56.4,53.0,29.86,West,273,0.0,3.0,88,0.00,,,0.00,weatherlink.com 1.10,2013-01-14 00:21:00,
2013-01-13 19:36:00,56.3,53.0,29.85,South,169,0.0,2.0,89,0.00,,,0.00,weatherlink.com 1.10,2013-01-14 00:36:00,
2013-01-13 19:51:00,56.0,53.0,29.84,West,275,0.0,3.0,89,0.00,,,0.00,weatherlink.com 1.10,2013-01-14 00:51:00,
2013-01-13 20:06:00,55.8,53.0,29.84,West,275,0.0,0.0,90,0.00,,,0.00,weatherlink.com 1.10,2013-01-14 01:06:00,
2013-01-13 20:21:00,55.5,52.0,29.84,West,275,0.0,0.0,89,0.00,,,0.00,weatherlink.com 1.10,2013-01-14 01:21:00,
2013-01-13 20:36:00,54.9,52.0,29.84,West,275,0.0,0.0,91,0.00,,,0.00,weatherlink.com 1.10,2013-01-14 01:36:00,
2013-01-13 20:51:00,54.8,52.0,29.82,West,275,0.0,0.0,91,0.00,,,0.00,weatherlink.com 1.10,2013-01-14 01:51:00,
2013-01-13 21:06:00,54.5,52.0,29.84,WSW,257,0.0,3.0,91,0.00,,,0.00,weatherlink.com 1.10,2013-01-14 02:06:00,
2013-01-13 21:21:00,54.5,52.0,29.83,South,176,0.0,3.0,91,0.00,,,0.00,weatherlink.com 1.10,2013-01-14 02:21:00,
2013-01-13 21:36:00,54.3,52.0,29.81,SSW,192,0.0,2.0,92,0.00,,,0.00,weatherlink.com 1.10,2013-01-14 02:36:00,
2013-01-13 21:51:00,54.0,52.0,29.81,SSW,192,0.0,0.0,92,0.00,,,0.00,weatherlink.com 1.10,2013-01-14 02:51:00,
2013-01-13 22:06:00,54.2,52.0,29.80,SSW,192,0.0,0.0,93,0.00,,,0.00,weatherlink.com 1.10,2013-01-14 03:06:00,
2013-01-13 22:21:00,54.5,53.0,29.80,SSW,192,0.0,0.0,93,0.00,,,0.00,weatherlink.com 1.10,2013-01-14 03:21:00,
2013-01-13 22:36:00,53.9,52.0,29.80,SSW,192,0.0,0.0,92,0.00,,,0.00,weatherlink.com 1.10,2013-01-14 03:36:00,
2013-01-13 22:51:00,53.3,51.0,29.79,SSE,154,0.0,3.0,93,0.00,,,0.00,weatherlink.com 1.10,2013-01-14 03:51:00,
2013-01-13 23:06:00,52.9,50.0,29.78,SSE,154,1.0,2.0,91,0.00,,,0.00,weatherlink.com 1.10,2013-01-14 04:06:00,
2013-01-13 23:21:00,52.8,50.0,29.77,SE,125,0.0,1.0,90,0.00,,,0.00,weatherlink.com 1.10,2013-01-14 04:21:00,
2013-01-13 23:36:00,53.1,50.0,29.75,SSE,161,3.0,4.0,90,0.00,,,0.00,weatherlink.com 1.10,2013-01-14 04:36:00,
2013-01-13 23:51:00,53.8,51.0,29.73,SSW,202,0.0,2.0,89,0.00,,,0.00,weatherlink.com 1.10,2013-01-14 04:51:00,